sensor_id;sensor_type;location;lat;lon;timestamp;pressure;altitude;pressure_sealevel;temperature;humidity
60871;BME280;46714;50.118;14.462;2022-12-07T00:02:01;98676.03;;;2.37;100.00
60871;BME280;46714;50.118;14.462;2022-12-07T00:04:26;98679.53;;;2.38;100.00
60871;BME280;46714;50.118;14.462;2022-12-07T00:06:51;98677.69;;;2.38;100.00
60871;BME280;46714;50.118;14.462;2022-12-07T00:09:18;98680.38;;;2.38;100.00
60871;BME280;46714;50.118;14.462;2022-12-07T00:11:48;98680.19;;;2.40;100.00
60871;BME280;46714;50.118;14.462;2022-12-07T00:14:15;98678.53;;;2.39;100.00
60871;BME280;46714;50.118;14.462;2022-12-07T00:16:41;98671.31;;;2.39;100.00
60871;BME280;46714;50.118;14.462;2022-12-07T00:19:08;98671.31;;;2.39;100.00
60871;BME280;46714;50.118;14.462;2022-12-07T00:21:35;98665.13;;;2.39;100.00
60871;BME280;46714;50.118;14.462;2022-12-07T00:24:00;98666.78;;;2.40;100.00
60871;BME280;46714;50.118;14.462;2022-12-07T00:26:28;98667.59;;;2.40;100.00
60871;BME280;46714;50.118;14.462;2022-12-07T00:28:56;98665.94;;;2.39;100.00
60871;BME280;46714;50.118;14.462;2022-12-07T00:31:25;98666.09;;;2.38;100.00
60871;BME280;46714;50.118;14.462;2022-12-07T00:33:52;98674.00;;;2.39;100.00
60871;BME280;46714;50.118;14.462;2022-12-07T00:36:19;98663.91;;;2.41;100.00
60871;BME280;46714;50.118;14.462;2022-12-07T00:38:46;98663.91;;;2.41;100.00
60871;BME280;46714;50.118;14.462;2022-12-07T00:41:16;98662.06;;;2.42;100.00
60871;BME280;46714;50.118;14.462;2022-12-07T00:43:43;98667.44;;;2.42;100.00
60871;BME280;46714;50.118;14.462;2022-12-07T00:46:09;98660.22;;;2.42;100.00
60871;BME280;46714;50.118;14.462;2022-12-07T00:48:35;98664.75;;;2.42;100.00
60871;BME280;46714;50.118;14.462;2022-12-07T00:51:01;98656.84;;;2.40;100.00
60871;BME280;46714;50.118;14.462;2022-12-07T00:53:27;98655.19;;;2.39;100.00
60871;BME280;46714;50.118;14.462;2022-12-07T00:55:53;98661.75;;;2.37;100.00
60871;BME280;46714;50.118;14.462;2022-12-07T00:58:18;98651.34;;;2.34;100.00
60871;BME280;46714;50.118;14.462;2022-12-07T01:00:44;98658.56;;;2.33;100.00
60871;BME280;46714;50.118;14.462;2022-12-07T01:03:10;98651.53;;;2.32;100.00
60871;BME280;46714;50.118;14.462;2022-12-07T01:05:38;98651.72;;;2.30;100.00
60871;BME280;46714;50.118;14.462;2022-12-07T01:08:04;98661.44;;;2.32;100.00
60871;BME280;46714;50.118;14.462;2022-12-07T01:10:30;98662.63;;;2.29;100.00
60871;BME280;46714;50.118;14.462;2022-12-07T01:12:56;98664.31;;;2.30;100.00
60871;BME280;46714;50.118;14.462;2022-12-07T01:15:22;98663.47;;;2.29;100.00
60871;BME280;46714;50.118;14.462;2022-12-07T01:17:48;98658.09;;;2.29;100.00
60871;BME280;46714;50.118;14.462;2022-12-07T01:20:13;98662.44;;;2.30;100.00
60871;BME280;46714;50.118;14.462;2022-12-07T01:22:41;98660.59;;;2.31;100.00
60871;BME280;46714;50.118;14.462;2022-12-07T01:25:07;98663.47;;;2.29;100.00
60871;BME280;46714;50.118;14.462;2022-12-07T01:27:35;98667.00;;;2.30;100.00
60871;BME280;46714;50.118;14.462;2022-12-07T01:30:00;98665.13;;;2.30;100.00
60871;BME280;46714;50.118;14.462;2022-12-07T01:32:27;98669.50;;;2.32;100.00
60871;BME280;46714;50.118;14.462;2022-12-07T01:34:54;98657.91;;;2.31;100.00
60871;BME280;46714;50.118;14.462;2022-12-07T01:37:19;98659.59;;;2.32;100.00
60871;BME280;46714;50.118;14.462;2022-12-07T01:39:47;98659.59;;;2.32;100.00
60871;BME280;46714;50.118;14.462;2022-12-07T01:42:13;98656.91;;;2.32;100.00
60871;BME280;46714;50.118;14.462;2022-12-07T01:47:58;98649.84;;;2.31;100.00
60871;BME280;46714;50.118;14.462;2022-12-07T01:50:26;98651.53;;;2.32;100.00
60871;BME280;46714;50.118;14.462;2022-12-07T01:52:56;98647.16;;;2.31;100.00
60871;BME280;46714;50.118;14.462;2022-12-07T01:55:24;98652.38;;;2.33;100.00
60871;BME280;46714;50.118;14.462;2022-12-07T01:57:50;98646.16;;;2.32;100.00
60871;BME280;46714;50.118;14.462;2022-12-07T02:00:19;98654.22;;;2.32;100.00
60871;BME280;46714;50.118;14.462;2022-12-07T02:05:28;98646.16;;;2.32;100.00
60871;BME280;46714;50.118;14.462;2022-12-07T02:07:54;98645.34;;;2.32;100.00
60871;BME280;46714;50.118;14.462;2022-12-07T02:10:23;98653.19;;;2.33;100.00
60871;BME280;46714;50.118;14.462;2022-12-07T02:12:56;98650.72;;;2.32;100.00
60871;BME280;46714;50.118;14.462;2022-12-07T02:15:29;98649.84;;;2.31;100.00
60871;BME280;46714;50.118;14.462;2022-12-07T02:24:00;98644.47;;;2.31;100.00
60871;BME280;46714;50.118;14.462;2022-12-07T02:27:01;98646.50;;;2.29;100.00
60871;BME280;46714;50.118;14.462;2022-12-07T02:29:44;98644.69;;;2.29;100.00
60871;BME280;46714;50.118;14.462;2022-12-07T02:32:25;98647.38;;;2.29;100.00
60871;BME280;46714;50.118;14.462;2022-12-07T02:35:07;98642.81;;;2.30;100.00
60871;BME280;46714;50.118;14.462;2022-12-07T02:40:39;98648.19;;;2.30;100.00
60871;BME280;46714;50.118;14.462;2022-12-07T02:45:50;98649.84;;;2.31;100.00
60871;BME280;46714;50.118;14.462;2022-12-07T02:48:17;98642.81;;;2.30;100.00
60871;BME280;46714;50.118;14.462;2022-12-07T02:50:48;98649.84;;;2.31;100.00
60871;BME280;46714;50.118;14.462;2022-12-07T02:53:34;98652.53;;;2.31;100.00
60871;BME280;46714;50.118;14.462;2022-12-07T02:56:13;98641.63;;;2.33;100.00
60871;BME280;46714;50.118;14.462;2022-12-07T03:07:24;98626.72;;;2.30;100.00
60871;BME280;46714;50.118;14.462;2022-12-07T03:10:03;98627.69;;;2.29;100.00
60871;BME280;46714;50.118;14.462;2022-12-07T03:15:39;98630.75;;;2.26;100.00
60871;BME280;46714;50.118;14.462;2022-12-07T03:18:12;98622.03;;;2.24;100.00
60871;BME280;46714;50.118;14.462;2022-12-07T03:20:43;98617.50;;;2.24;100.00
60871;BME280;46714;50.118;14.462;2022-12-07T03:23:11;98615.47;;;2.26;100.00
60871;BME280;46714;50.118;14.462;2022-12-07T03:25:39;98616.50;;;2.25;100.00
60871;BME280;46714;50.118;14.462;2022-12-07T03:28:08;98611.28;;;2.24;100.00
60871;BME280;46714;50.118;14.462;2022-12-07T03:33:07;98605.91;;;2.24;100.00
60871;BME280;46714;50.118;14.462;2022-12-07T03:35:40;98603.22;;;2.24;100.00
60871;BME280;46714;50.118;14.462;2022-12-07T03:40:58;98596.38;;;2.21;100.00
60871;BME280;46714;50.118;14.462;2022-12-07T03:43:28;98593.84;;;2.20;100.00
60871;BME280;46714;50.118;14.462;2022-12-07T03:48:39;98593.00;;;2.19;100.00
60871;BME280;46714;50.118;14.462;2022-12-07T03:51:27;98577.72;;;2.20;100.00
60871;BME280;46714;50.118;14.462;2022-12-07T03:54:12;98582.13;;;2.21;100.00
60871;BME280;46714;50.118;14.462;2022-12-07T03:56:44;98583.09;;;2.20;100.00
60871;BME280;46714;50.118;14.462;2022-12-07T03:59:13;98586.66;;;2.20;100.00
60871;BME280;46714;50.118;14.462;2022-12-07T04:01:51;98586.66;;;2.20;100.00
60871;BME280;46714;50.118;14.462;2022-12-07T04:04:19;98586.81;;;2.19;100.00
60871;BME280;46714;50.118;14.462;2022-12-07T04:06:44;98583.47;;;2.17;100.00
60871;BME280;46714;50.118;14.462;2022-12-07T04:09:09;98586.16;;;2.17;100.00
60871;BME280;46714;50.118;14.462;2022-12-07T04:11:35;98586.97;;;2.17;100.00
60871;BME280;46714;50.118;14.462;2022-12-07T04:14:00;98586.16;;;2.17;100.00
60871;BME280;46714;50.118;14.462;2022-12-07T04:16:53;98587.66;;;2.19;100.00
60871;BME280;46714;50.118;14.462;2022-12-07T04:19:27;98577.94;;;2.18;100.00
60871;BME280;46714;50.118;14.462;2022-12-07T04:21:54;98574.41;;;2.18;100.00
60871;BME280;46714;50.118;14.462;2022-12-07T04:24:21;98582.28;;;2.19;100.00
60871;BME280;46714;50.118;14.462;2022-12-07T04:26:47;98576.06;;;2.19;100.00
60871;BME280;46714;50.118;14.462;2022-12-07T04:29:13;98575.91;;;2.20;100.00
60871;BME280;46714;50.118;14.462;2022-12-07T04:31:39;98577.56;;;2.21;100.00
60871;BME280;46714;50.118;14.462;2022-12-07T04:34:06;98583.97;;;2.20;100.00
60871;BME280;46714;50.118;14.462;2022-12-07T04:36:32;98577.72;;;2.20;100.00
60871;BME280;46714;50.118;14.462;2022-12-07T04:38:57;98581.44;;;2.19;100.00
60871;BME280;46714;50.118;14.462;2022-12-07T04:41:24;98570.41;;;2.14;100.00
60871;BME280;46714;50.118;14.462;2022-12-07T04:43:56;98577.63;;;2.13;100.00
60871;BME280;46714;50.118;14.462;2022-12-07T04:46:23;98582.50;;;2.09;100.00
60871;BME280;46714;50.118;14.462;2022-12-07T04:48:49;98573.78;;;2.07;100.00
60871;BME280;46714;50.118;14.462;2022-12-07T04:51:16;98583.19;;;2.03;100.00
60871;BME280;46714;50.118;14.462;2022-12-07T04:53:44;98581.03;;;1.99;100.00
60871;BME280;46714;50.118;14.462;2022-12-07T04:56:10;98576.19;;;1.94;100.00
60871;BME280;46714;50.118;14.462;2022-12-07T04:58:35;98581.25;;;1.89;100.00
60871;BME280;46714;50.118;14.462;2022-12-07T05:01:01;98578.25;;;1.84;100.00
60871;BME280;46714;50.118;14.462;2022-12-07T05:03:27;98578.78;;;1.79;100.00
60871;BME280;46714;50.118;14.462;2022-12-07T05:05:52;98574.75;;;1.75;100.00
60871;BME280;46714;50.118;14.462;2022-12-07T05:08:18;98579.63;;;1.72;100.00
60871;BME280;46714;50.118;14.462;2022-12-07T05:10:43;98582.81;;;1.67;100.00
60871;BME280;46714;50.118;14.462;2022-12-07T05:13:08;98576.97;;;1.63;100.00
60871;BME280;46714;50.118;14.462;2022-12-07T05:15:34;98574.81;;;1.59;100.00
60871;BME280;46714;50.118;14.462;2022-12-07T05:17:59;98581.53;;;1.55;100.00
60871;BME280;46714;50.118;14.462;2022-12-07T05:20:24;98578.16;;;1.53;100.00
60871;BME280;46714;50.118;14.462;2022-12-07T05:22:50;98578.53;;;1.50;100.00
60871;BME280;46714;50.118;14.462;2022-12-07T05:25:15;98578.84;;;1.46;100.00
60871;BME280;46714;50.118;14.462;2022-12-07T05:27:40;98582.91;;;1.42;100.00
60871;BME280;46714;50.118;14.462;2022-12-07T05:30:06;98570.69;;;1.40;100.00
60871;BME280;46714;50.118;14.462;2022-12-07T05:32:32;98577.19;;;1.37;100.00
60871;BME280;46714;50.118;14.462;2022-12-07T05:34:57;98567.84;;;1.33;100.00
60871;BME280;46714;50.118;14.462;2022-12-07T05:37:22;98566.34;;;1.31;100.00
60871;BME280;46714;50.118;14.462;2022-12-07T05:39:48;98562.78;;;1.30;100.00
60871;BME280;46714;50.118;14.462;2022-12-07T05:42:13;98566.34;;;1.31;100.00
60871;BME280;46714;50.118;14.462;2022-12-07T05:44:43;98571.69;;;1.31;100.00
60871;BME280;46714;50.118;14.462;2022-12-07T05:47:10;98565.47;;;1.30;100.00
60871;BME280;46714;50.118;14.462;2022-12-07T05:49:37;98569.19;;;1.29;100.00
60871;BME280;46714;50.118;14.462;2022-12-07T05:52:03;98566.66;;;1.28;100.00
60871;BME280;46714;50.118;14.462;2022-12-07T05:54:28;98570.16;;;1.28;100.00
60871;BME280;46714;50.118;14.462;2022-12-07T05:56:54;98572.84;;;1.28;100.00
60871;BME280;46714;50.118;14.462;2022-12-07T05:59:20;98570.34;;;1.27;100.00
60871;BME280;46714;50.118;14.462;2022-12-07T06:01:52;98576.72;;;1.25;100.00
60871;BME280;46714;50.118;14.462;2022-12-07T06:04:19;98579.38;;;1.25;100.00
60871;BME280;46714;50.118;14.462;2022-12-07T06:06:46;98572.53;;;1.23;100.00
60871;BME280;46714;50.118;14.462;2022-12-07T06:09:11;98576.38;;;1.20;100.00
60871;BME280;46714;50.118;14.462;2022-12-07T06:11:37;98571.38;;;1.17;100.00
60871;BME280;46714;50.118;14.462;2022-12-07T06:14:22;98580.91;;;1.12;100.00
60871;BME280;46714;50.118;14.462;2022-12-07T06:16:48;98576.91;;;1.08;100.00
60871;BME280;46714;50.118;14.462;2022-12-07T06:19:13;98573.88;;;1.02;100.00
60871;BME280;46714;50.118;14.462;2022-12-07T06:21:39;98570.53;;;1.00;100.00
60871;BME280;46714;50.118;14.462;2022-12-07T06:24:04;98575.41;;;0.97;100.00
60871;BME280;46714;50.118;14.462;2022-12-07T06:26:30;98577.56;;;0.93;100.00
60871;BME280;46714;50.118;14.462;2022-12-07T06:28:56;98581.59;;;0.89;100.00
60871;BME280;46714;50.118;14.462;2022-12-07T06:31:21;98579.09;;;0.88;100.00
60871;BME280;46714;50.118;14.462;2022-12-07T06:33:47;98582.09;;;0.84;100.00
60871;BME280;46714;50.118;14.462;2022-12-07T06:36:12;98571.72;;;0.81;100.00
60871;BME280;46714;50.118;14.462;2022-12-07T06:38:38;98579.25;;;0.78;100.00
60871;BME280;46714;50.118;14.462;2022-12-07T06:41:04;98568.19;;;0.73;100.00
60871;BME280;46714;50.118;14.462;2022-12-07T06:43:30;98580.09;;;0.70;100.00
60871;BME280;46714;50.118;14.462;2022-12-07T06:45:55;98577.56;;;0.69;100.00
60871;BME280;46714;50.118;14.462;2022-12-07T06:48:20;98570.69;;;0.66;100.00
60871;BME280;46714;50.118;14.462;2022-12-07T06:50:46;98572.69;;;0.64;100.00
60871;BME280;46714;50.118;14.462;2022-12-07T06:53:12;98579.06;;;0.63;100.00
60871;BME280;46714;50.118;14.462;2022-12-07T06:55:38;98577.41;;;0.62;100.00
60871;BME280;46714;50.118;14.462;2022-12-07T06:58:03;98587.13;;;0.63;100.00
60871;BME280;46714;50.118;14.462;2022-12-07T07:00:29;98582.59;;;0.63;100.00
60871;BME280;46714;50.118;14.462;2022-12-07T07:02:54;98580.44;;;0.67;100.00
60871;BME280;46714;50.118;14.462;2022-12-07T07:05:20;98588.78;;;0.72;100.00
60871;BME280;46714;50.118;14.462;2022-12-07T07:07:48;98591.81;;;0.77;100.00
60871;BME280;46714;50.118;14.462;2022-12-07T07:10:14;98585.13;;;0.81;100.00
60871;BME280;46714;50.118;14.462;2022-12-07T07:12:39;98582.09;;;0.84;99.11
60871;BME280;46714;50.118;14.462;2022-12-07T07:15:05;98578.44;;;0.86;99.27
60871;BME280;46714;50.118;14.462;2022-12-07T07:17:31;98578.44;;;0.86;98.81
60871;BME280;46714;50.118;14.462;2022-12-07T07:19:56;98581.09;;;0.86;99.05
60871;BME280;46714;50.118;14.462;2022-12-07T07:22:21;98571.38;;;0.84;98.89
60871;BME280;46714;50.118;14.462;2022-12-07T07:24:47;98568.06;;;0.82;97.98
60871;BME280;46714;50.118;14.462;2022-12-07T07:27:12;98564.69;;;0.80;98.82
60871;BME280;46714;50.118;14.462;2022-12-07T07:29:37;98562.03;;;0.80;99.15
60871;BME280;46714;50.118;14.462;2022-12-07T07:32:03;98575.56;;;0.79;98.37
60871;BME280;46714;50.118;14.462;2022-12-07T07:34:29;98574.91;;;0.77;98.65
60871;BME280;46714;50.118;14.462;2022-12-07T07:36:54;98584.59;;;0.78;97.77
60871;BME280;46714;50.118;14.462;2022-12-07T07:39:20;98582.78;;;0.78;97.68
60871;BME280;46714;50.118;14.462;2022-12-07T07:41:45;98584.78;;;0.76;97.30
60871;BME280;46714;50.118;14.462;2022-12-07T07:44:11;98587.13;;;0.79;97.57
60871;BME280;46714;50.118;14.462;2022-12-07T07:46:36;98587.78;;;0.81;97.48
60871;BME280;46714;50.118;14.462;2022-12-07T07:49:02;98581.25;;;0.84;98.24
60871;BME280;46714;50.118;14.462;2022-12-07T07:51:27;98587.13;;;0.88;97.17
60871;BME280;46714;50.118;14.462;2022-12-07T07:53:52;98589.31;;;0.92;97.32
60871;BME280;46714;50.118;14.462;2022-12-07T07:56:17;98581.44;;;0.99;98.03
60871;BME280;46714;50.118;14.462;2022-12-07T07:58:43;98589.31;;;1.09;97.77
60871;BME280;46714;50.118;14.462;2022-12-07T08:01:08;98587.13;;;1.20;97.53
60871;BME280;46714;50.118;14.462;2022-12-07T08:03:34;98586.94;;;1.30;96.52
60871;BME280;46714;50.118;14.462;2022-12-07T08:05:59;98588.44;;;1.41;96.63
60871;BME280;46714;50.118;14.462;2022-12-07T08:08:26;98585.91;;;1.48;96.13
60871;BME280;46714;50.118;14.462;2022-12-07T08:10:51;98583.69;;;1.51;94.45
60871;BME280;46714;50.118;14.462;2022-12-07T08:13:17;98584.38;;;1.53;93.90
60871;BME280;46714;50.118;14.462;2022-12-07T08:15:43;98588.38;;;1.57;94.20
60871;BME280;46714;50.118;14.462;2022-12-07T08:18:10;98584.34;;;1.61;94.74
60871;BME280;46714;50.118;14.462;2022-12-07T08:20:37;98585.84;;;1.64;94.26
60871;BME280;46714;50.118;14.462;2022-12-07T08:23:05;98591.88;;;1.66;92.63
60871;BME280;46714;50.118;14.462;2022-12-07T08:25:31;98596.75;;;1.71;93.07
60871;BME280;46714;50.118;14.462;2022-12-07T08:27:57;98607.78;;;1.76;92.28
60871;BME280;46714;50.118;14.462;2022-12-07T08:30:23;98597.03;;;1.76;92.59
60871;BME280;46714;50.118;14.462;2022-12-07T08:32:48;98586.31;;;1.76;92.84
60871;BME280;46714;50.118;14.462;2022-12-07T08:35:14;98589.34;;;1.73;94.32
60871;BME280;46714;50.118;14.462;2022-12-07T08:37:40;98592.03;;;1.73;94.84
60871;BME280;46714;50.118;14.462;2022-12-07T08:40:06;98590.69;;;1.68;95.35
60871;BME280;46714;50.118;14.462;2022-12-07T08:42:33;98597.09;;;1.67;95.58
60871;BME280;46714;50.118;14.462;2022-12-07T08:45:09;98589.38;;;1.64;93.33
60871;BME280;46714;50.118;14.462;2022-12-07T08:47:36;98592.03;;;1.64;95.02
60871;BME280;46714;50.118;14.462;2022-12-07T08:50:03;98599.09;;;1.65;94.74
60871;BME280;46714;50.118;14.462;2022-12-07T08:52:32;98593.53;;;1.67;94.22
60871;BME280;46714;50.118;14.462;2022-12-07T08:54:59;98587.19;;;1.68;94.73
60871;BME280;46714;50.118;14.462;2022-12-07T08:57:26;98588.69;;;1.71;95.24
60871;BME280;46714;50.118;14.462;2022-12-07T08:59:53;98584.81;;;1.73;95.16
60871;BME280;46714;50.118;14.462;2022-12-07T09:02:18;98585.66;;;1.74;93.88
60871;BME280;46714;50.118;14.462;2022-12-07T09:04:44;98587.16;;;1.76;93.66
60871;BME280;46714;50.118;14.462;2022-12-07T09:07:09;98584.81;;;1.81;94.51
60871;BME280;46714;50.118;14.462;2022-12-07T09:09:35;98591.47;;;1.85;94.38
60871;BME280;46714;50.118;14.462;2022-12-07T09:12:00;98585.59;;;1.90;93.82
60871;BME280;46714;50.118;14.462;2022-12-07T09:14:25;98592.13;;;1.96;93.54
60871;BME280;46714;50.118;14.462;2022-12-07T09:16:51;98594.94;;;2.02;93.31
60871;BME280;46714;50.118;14.462;2022-12-07T09:19:16;98602.31;;;2.08;90.88
60871;BME280;46714;50.118;14.462;2022-12-07T09:21:42;98600.94;;;2.13;91.44
60871;BME280;46714;50.118;14.462;2022-12-07T09:24:07;98587.84;;;2.18;91.19
60871;BME280;46714;50.118;14.462;2022-12-07T09:26:34;98597.03;;;2.23;91.11
60871;BME280;46714;50.118;14.462;2022-12-07T09:29:00;98594.47;;;2.30;90.66
60871;BME280;46714;50.118;14.462;2022-12-07T09:31:27;98584.22;;;2.34;91.33
60871;BME280;46714;50.118;14.462;2022-12-07T09:33:53;98579.16;;;2.39;89.34
60871;BME280;46714;50.118;14.462;2022-12-07T09:36:22;98585.19;;;2.41;90.39
60871;BME280;46714;50.118;14.462;2022-12-07T09:38:48;98575.94;;;2.43;89.19
60871;BME280;46714;50.118;14.462;2022-12-07T09:41:13;98589.38;;;2.43;88.89
60871;BME280;46714;50.118;14.462;2022-12-07T09:43:40;98579.28;;;2.45;89.43
60871;BME280;46714;50.118;14.462;2022-12-07T09:46:08;98587.34;;;2.45;88.38
60871;BME280;46714;50.118;14.462;2022-12-07T09:48:39;98578.09;;;2.48;89.17
60871;BME280;46714;50.118;14.462;2022-12-07T09:51:16;98579.97;;;2.47;89.76
60871;BME280;46714;50.118;14.462;2022-12-07T09:53:43;98585.34;;;2.47;89.47
60871;BME280;46714;50.118;14.462;2022-12-07T09:56:13;98580.78;;;2.48;89.43
60871;BME280;46714;50.118;14.462;2022-12-07T09:58:40;98576.25;;;2.48;87.23
60871;BME280;46714;50.118;14.462;2022-12-07T10:03:32;98578.56;;;2.51;88.94
60871;BME280;46714;50.118;14.462;2022-12-07T10:06:00;98573.84;;;2.54;88.08
60871;BME280;46714;50.118;14.462;2022-12-07T10:08:26;98568.97;;;2.57;89.25
60871;BME280;46714;50.118;14.462;2022-12-07T10:10:53;98561.09;;;2.56;87.12
60871;BME280;46714;50.118;14.462;2022-12-07T10:16:27;98563.22;;;2.60;87.05
60871;BME280;46714;50.118;14.462;2022-12-07T10:19:17;98571.41;;;2.67;87.33
60871;BME280;46714;50.118;14.462;2022-12-07T10:22:10;98566.53;;;2.70;86.79
60871;BME280;46714;50.118;14.462;2022-12-07T10:24:41;98567.00;;;2.74;86.60
60871;BME280;46714;50.118;14.462;2022-12-07T10:27:26;98573.03;;;2.76;85.91
60871;BME280;46714;50.118;14.462;2022-12-07T10:29:55;98564.78;;;2.78;86.29
60871;BME280;46714;50.118;14.462;2022-12-07T10:32:28;98553.84;;;2.79;87.22
60871;BME280;46714;50.118;14.462;2022-12-07T10:37:46;98563.09;;;2.77;86.46
60871;BME280;46714;50.118;14.462;2022-12-07T10:43:05;98553.38;;;2.76;86.98
60871;BME280;46714;50.118;14.462;2022-12-07T10:59:47;98559.97;;;2.73;87.60
60871;BME280;46714;50.118;14.462;2022-12-07T11:07:22;98545.75;;;2.64;87.09
60871;BME280;46714;50.118;14.462;2022-12-07T11:15:21;98530.16;;;2.60;88.28
60871;BME280;46714;50.118;14.462;2022-12-07T11:18:06;98528.47;;;2.59;88.71
60871;BME280;46714;50.118;14.462;2022-12-07T11:20:50;98524.13;;;2.58;89.28
60871;BME280;46714;50.118;14.462;2022-12-07T11:34:56;98509.03;;;2.57;89.16
60871;BME280;46714;50.118;14.462;2022-12-07T11:36:58;98504.50;;;2.57;90.22
60871;BME280;46714;50.118;14.462;2022-12-07T11:42:11;98498.38;;;2.63;89.57
60871;BME280;46714;50.118;14.462;2022-12-07T11:44:55;98499.91;;;2.66;89.66
60871;BME280;46714;50.118;14.462;2022-12-07T11:50:07;98512.25;;;2.75;88.46
60871;BME280;46714;50.118;14.462;2022-12-07T11:52:54;98498.44;;;2.78;88.07
60871;BME280;46714;50.118;14.462;2022-12-07T11:55:39;98493.34;;;2.83;87.80
60871;BME280;46714;50.118;14.462;2022-12-07T12:00:49;98494.94;;;2.92;86.24
60871;BME280;46714;50.118;14.462;2022-12-07T12:03:23;98497.09;;;2.97;86.70
60871;BME280;46714;50.118;14.462;2022-12-07T12:05:56;98483.31;;;3.00;86.18
60871;BME280;46714;50.118;14.462;2022-12-07T12:08:27;98488.94;;;3.05;86.45
60871;BME280;46714;50.118;14.462;2022-12-07T12:24:48;98477.09;;;3.14;86.29
60871;BME280;46714;50.118;14.462;2022-12-07T12:27:23;98476.88;;;3.16;85.51
60871;BME280;46714;50.118;14.462;2022-12-07T12:29:55;98473.19;;;3.17;85.12
60871;BME280;46714;50.118;14.462;2022-12-07T12:32:30;98473.84;;;3.19;85.96
60871;BME280;46714;50.118;14.462;2022-12-07T12:35:21;98476.34;;;3.21;86.96
60871;BME280;46714;50.118;14.462;2022-12-07T12:40:44;98476.34;;;3.21;86.79
60871;BME280;46714;50.118;14.462;2022-12-07T12:51:41;98465.13;;;3.32;84.43
60871;BME280;46714;50.118;14.462;2022-12-07T12:59:23;98467.91;;;3.39;84.42
60871;BME280;46714;50.118;14.462;2022-12-07T13:12:59;98474.84;;;3.48;81.84
60871;BME280;46714;50.118;14.462;2022-12-07T13:23:33;98468.75;;;3.54;81.45
60871;BME280;46714;50.118;14.462;2022-12-07T13:28:48;98466.69;;;3.56;81.89
60871;BME280;46714;50.118;14.462;2022-12-07T13:33:56;98464.66;;;3.58;81.49
60871;BME280;46714;50.118;14.462;2022-12-07T13:36:30;98462.63;;;3.60;82.07
60871;BME280;46714;50.118;14.462;2022-12-07T13:39:10;98460.56;;;3.62;81.42
60871;BME280;46714;50.118;14.462;2022-12-07T13:41:43;98451.66;;;3.62;81.63
60871;BME280;46714;50.118;14.462;2022-12-07T13:44:12;98454.34;;;3.62;80.77
60871;BME280;46714;50.118;14.462;2022-12-07T13:49:46;98463.06;;;3.64;80.09
60871;BME280;46714;50.118;14.462;2022-12-07T13:52:18;98449.44;;;3.65;81.25
60871;BME280;46714;50.118;14.462;2022-12-07T13:54:46;98461.84;;;3.66;81.04
60871;BME280;46714;50.118;14.462;2022-12-07T13:57:20;98451.94;;;3.67;79.48
60871;BME280;46714;50.118;14.462;2022-12-07T13:59:46;98461.50;;;3.69;78.39
60871;BME280;46714;50.118;14.462;2022-12-07T14:04:50;98467.53;;;3.71;77.63
60871;BME280;46714;50.118;14.462;2022-12-07T14:07:26;98461.75;;;3.74;77.58
60871;BME280;46714;50.118;14.462;2022-12-07T14:10:00;98464.91;;;3.78;78.11
60871;BME280;46714;50.118;14.462;2022-12-07T14:12:29;98475.28;;;3.81;78.13
60871;BME280;46714;50.118;14.462;2022-12-07T14:14:55;98463.13;;;3.85;79.15
60871;BME280;46714;50.118;14.462;2022-12-07T14:17:23;98473.03;;;3.85;78.49
60871;BME280;46714;50.118;14.462;2022-12-07T14:19:51;98472.59;;;3.81;78.80
60871;BME280;46714;50.118;14.462;2022-12-07T14:27:49;98463.91;;;3.64;80.24
60871;BME280;46714;50.118;14.462;2022-12-07T14:30:20;98472.91;;;3.56;80.32
60871;BME280;46714;50.118;14.462;2022-12-07T14:32:54;98472.81;;;3.50;81.49
60871;BME280;46714;50.118;14.462;2022-12-07T14:35:28;98471.06;;;3.42;81.24
60871;BME280;46714;50.118;14.462;2022-12-07T14:37:54;98474.69;;;3.34;81.89
60871;BME280;46714;50.118;14.462;2022-12-07T14:40:21;98477.94;;;3.30;82.67
60871;BME280;46714;50.118;14.462;2022-12-07T14:42:53;98470.78;;;3.22;82.91
60871;BME280;46714;50.118;14.462;2022-12-07T14:45:22;98475.41;;;3.13;83.38
60871;BME280;46714;50.118;14.462;2022-12-07T14:47:48;98474.69;;;3.05;83.96
60871;BME280;46714;50.118;14.462;2022-12-07T14:50:14;98462.97;;;2.98;84.52
60871;BME280;46714;50.118;14.462;2022-12-07T14:52:42;98465.19;;;2.94;85.00
60871;BME280;46714;50.118;14.462;2022-12-07T14:55:16;98459.06;;;2.85;85.67
60871;BME280;46714;50.118;14.462;2022-12-07T14:57:47;98458.97;;;2.79;86.44
60871;BME280;46714;50.118;14.462;2022-12-07T15:00:13;98457.84;;;2.73;86.29
60871;BME280;46714;50.118;14.462;2022-12-07T15:02:40;98455.88;;;2.67;86.83
60871;BME280;46714;50.118;14.462;2022-12-07T15:05:06;98463.66;;;2.62;87.21
60871;BME280;46714;50.118;14.462;2022-12-07T15:07:31;98460.31;;;2.60;87.83
60871;BME280;46714;50.118;14.462;2022-12-07T15:09:57;98459.00;;;2.56;87.85
60871;BME280;46714;50.118;14.462;2022-12-07T15:12:22;98468.25;;;2.53;87.91
60871;BME280;46714;50.118;14.462;2022-12-07T15:14:49;98469.47;;;2.50;88.06
60871;BME280;46714;50.118;14.462;2022-12-07T15:17:15;98470.81;;;2.46;88.46
60871;BME280;46714;50.118;14.462;2022-12-07T15:19:40;98471.19;;;2.43;88.36
60871;BME280;46714;50.118;14.462;2022-12-07T15:22:06;98479.59;;;2.40;88.40
60871;BME280;46714;50.118;14.462;2022-12-07T15:24:33;98471.91;;;2.37;88.52
60871;BME280;46714;50.118;14.462;2022-12-07T15:26:58;98473.09;;;2.35;88.80
60871;BME280;46714;50.118;14.462;2022-12-07T15:29:24;98479.66;;;2.32;89.24
60871;BME280;46714;50.118;14.462;2022-12-07T15:31:50;98472.63;;;2.31;89.27
60871;BME280;46714;50.118;14.462;2022-12-07T15:34:15;98470.59;;;2.33;88.57
60871;BME280;46714;50.118;14.462;2022-12-07T15:36:41;98471.25;;;2.35;88.93
60871;BME280;46714;50.118;14.462;2022-12-07T15:39:06;98473.94;;;2.35;88.94
60871;BME280;46714;50.118;14.462;2022-12-07T15:41:31;98469.22;;;2.37;89.04